New Braunfels, TX (78132)

11:00 PM CDT on March 24, 2017 (GMT -0500)
River Road nr 1st Crossing | | Change Station

Elev 672 ft 29.75 °N, 98.15 °W | Updated 30 seconds ago

Clear
Clear
55.7 °F
Feels Like 55.7 °F
N
2.0
Wind Variable Wind from SSE
Gusts 7.0 mph

Today
High -- | Low -- °F
--% Chance of Precip.
Yesterday
High -- | Low -- °F
Precip. -- in
Pressure 29.93 in
Visibility 10.0 miles
Clouds Clear
Dew Point 50 °F
Humidity 80%
Rainfall 0.00 in
Snow Depth Not available.
7:31 AM 7:46 PM
Waning Crescent, 11% visible
METAR KBAZ 250351Z AUTO 21005KT 10SM CLR 14/12 A2994 RMK AO2 SLP134 T01440122
Pressure 29.93 in
Visibility 10.0 miles
Clouds Clear
Dew Point 50 °F
Humidity 80%
Rainfall 0.00 in
Snow Depth Not available.
7:31 AM 7:46 PM
Waning Crescent, 11% visible
METAR KBAZ 250351Z AUTO 21005KT 10SM CLR 14/12 A2994 RMK AO2 SLP134 T01440122

Get Severe Weather Alerts

Thanks for signing up!

Be on the lookout for a verification email in your inbox.

You'll start receiving the daily forecast at 8 AM.

×

10-Day Weather Forecast

Almanac

Astronomy

Mar. 24, 2017 Rise Set
Actual Time
Civil Twilight
Nautical Twilight
Astronomical Twilight
Moon
Length of Visible Light
Length of Day
Tomorrow will be .
, % of the Moon is Illuminated

Today's Extremes

State Highs State Lows

Community

WunderPhotos

Upload Photos

1,962,540 photos uploaded!

WunderBlog® & News

Nearby

Air Quality

  Air Quality AQ Index Pollutant
Not available.

Snow Depth

Station Depth Elevation

Earthquake Activity

City Distance Mag. Time & Date
Minimum magnitude displayed is 2.5.

Earthquake Activity

City Distance Mag. Time & Date
Minimum magnitude displayed is 2.5.

Coastal Water Temperatures

Place Temperature

Stations

Nearby Weather Stations

Station Location Temp. Windchill Dew Point Humidity Wind Precip. Elev Updated Type
                   

Watches & Warnings

There are currently no watches in effect.